sensor_id;sensor_type;location;lat;lon;timestamp;P1;durP1;ratioP1;P2;durP2;ratioP2
6031;SDS011;3044;43.232;27.972;2023-07-29T00:00:45;2.30;;;2.10;;
6031;SDS011;3044;43.232;27.972;2023-07-29T00:03:13;2.60;;;2.03;;
6031;SDS011;3044;43.232;27.972;2023-07-29T00:05:40;1.80;;;1.50;;
6031;SDS011;3044;43.232;27.972;2023-07-29T00:08:07;1.23;;;1.13;;
6031;SDS011;3044;43.232;27.972;2023-07-29T00:10:37;2.20;;;2.07;;
6031;SDS011;3044;43.232;27.972;2023-07-29T00:13:04;2.20;;;2.07;;
6031;SDS011;3044;43.232;27.972;2023-07-29T00:15:31;3.47;;;1.70;;
6031;SDS011;3044;43.232;27.972;2023-07-29T00:17:58;2.40;;;2.20;;
6031;SDS011;3044;43.232;27.972;2023-07-29T00:20:25;1.70;;;1.60;;
6031;SDS011;3044;43.232;27.972;2023-07-29T00:22:53;2.20;;;1.80;;
6031;SDS011;3044;43.232;27.972;2023-07-29T00:25:20;3.40;;;1.93;;
6031;SDS011;3044;43.232;27.972;2023-07-29T00:27:49;2.07;;;1.53;;
6031;SDS011;3044;43.232;27.972;2023-07-29T00:30:16;1.73;;;1.63;;
6031;SDS011;3044;43.232;27.972;2023-07-29T00:32:43;2.33;;;1.67;;
6031;SDS011;3044;43.232;27.972;2023-07-29T00:35:10;1.87;;;1.67;;
6031;SDS011;3044;43.232;27.972;2023-07-29T00:37:37;3.00;;;2.40;;
6031;SDS011;3044;43.232;27.972;2023-07-29T00:40:07;1.90;;;1.33;;
6031;SDS011;3044;43.232;27.972;2023-07-29T00:42:40;4.17;;;1.90;;
6031;SDS011;3044;43.232;27.972;2023-07-29T00:45:10;2.00;;;1.90;;
6031;SDS011;3044;43.232;27.972;2023-07-29T00:47:37;2.30;;;1.53;;
6031;SDS011;3044;43.232;27.972;2023-07-29T00:50:05;3.77;;;1.50;;
6031;SDS011;3044;43.232;27.972;2023-07-29T00:52:33;1.70;;;1.60;;
6031;SDS011;3044;43.232;27.972;2023-07-29T00:55:00;7.73;;;1.70;;
6031;SDS011;3044;43.232;27.972;2023-07-29T00:57:28;6.90;;;1.47;;
6031;SDS011;3044;43.232;27.972;2023-07-29T00:59:56;1.70;;;1.50;;
6031;SDS011;3044;43.232;27.972;2023-07-29T01:02:25;2.23;;;1.67;;
6031;SDS011;3044;43.232;27.972;2023-07-29T01:04:55;8.43;;;1.70;;
6031;SDS011;3044;43.232;27.972;2023-07-29T01:07:26;2.33;;;1.53;;
6031;SDS011;3044;43.232;27.972;2023-07-29T01:10:00;3.07;;;1.70;;
6031;SDS011;3044;43.232;27.972;2023-07-29T01:12:32;4.67;;;1.90;;
6031;SDS011;3044;43.232;27.972;2023-07-29T01:15:08;1.93;;;1.70;;
6031;SDS011;3044;43.232;27.972;2023-07-29T01:17:42;6.90;;;2.23;;
6031;SDS011;3044;43.232;27.972;2023-07-29T01:20:16;10.43;;;2.30;;
6031;SDS011;3044;43.232;27.972;2023-07-29T01:22:46;4.90;;;2.73;;
6031;SDS011;3044;43.232;27.972;2023-07-29T01:25:19;7.37;;;2.37;;
6031;SDS011;3044;43.232;27.972;2023-07-29T01:27:46;6.93;;;1.43;;
6031;SDS011;3044;43.232;27.972;2023-07-29T01:30:18;7.77;;;1.87;;
6031;SDS011;3044;43.232;27.972;2023-07-29T01:32:48;5.80;;;2.00;;
6031;SDS011;3044;43.232;27.972;2023-07-29T01:35:21;4.47;;;2.10;;
6031;SDS011;3044;43.232;27.972;2023-07-29T01:37:55;2.10;;;1.60;;
6031;SDS011;3044;43.232;27.972;2023-07-29T01:40:27;5.87;;;2.30;;
6031;SDS011;3044;43.232;27.972;2023-07-29T01:42:54;1.90;;;1.80;;
6031;SDS011;3044;43.232;27.972;2023-07-29T01:45:23;1.60;;;1.50;;
6031;SDS011;3044;43.232;27.972;2023-07-29T01:47:50;12.80;;;2.03;;
6031;SDS011;3044;43.232;27.972;2023-07-29T01:50:18;1.93;;;1.43;;
6031;SDS011;3044;43.232;27.972;2023-07-29T01:52:45;3.47;;;1.70;;
6031;SDS011;3044;43.232;27.972;2023-07-29T01:55:12;2.30;;;1.83;;
6031;SDS011;3044;43.232;27.972;2023-07-29T01:57:41;4.03;;;1.37;;
6031;SDS011;3044;43.232;27.972;2023-07-29T02:00:10;2.17;;;1.73;;
6031;SDS011;3044;43.232;27.972;2023-07-29T02:02:38;9.10;;;1.67;;
6031;SDS011;3044;43.232;27.972;2023-07-29T02:05:05;4.30;;;1.93;;
6031;SDS011;3044;43.232;27.972;2023-07-29T02:07:32;1.70;;;1.60;;
6031;SDS011;3044;43.232;27.972;2023-07-29T02:09:59;2.10;;;1.47;;
6031;SDS011;3044;43.232;27.972;2023-07-29T02:12:26;2.43;;;1.60;;
6031;SDS011;3044;43.232;27.972;2023-07-29T02:14:55;5.47;;;1.63;;
6031;SDS011;3044;43.232;27.972;2023-07-29T02:17:22;1.93;;;1.83;;
6031;SDS011;3044;43.232;27.972;2023-07-29T02:19:49;6.30;;;1.10;;
6031;SDS011;3044;43.232;27.972;2023-07-29T02:22:17;1.83;;;1.63;;
6031;SDS011;3044;43.232;27.972;2023-07-29T02:24:44;2.00;;;1.57;;
6031;SDS011;3044;43.232;27.972;2023-07-29T02:27:11;4.10;;;1.50;;
6031;SDS011;3044;43.232;27.972;2023-07-29T02:29:38;3.10;;;1.73;;
6031;SDS011;3044;43.232;27.972;2023-07-29T02:32:07;2.23;;;1.80;;
6031;SDS011;3044;43.232;27.972;2023-07-29T02:34:34;1.50;;;1.37;;
6031;SDS011;3044;43.232;27.972;2023-07-29T02:37:01;2.43;;;1.77;;
6031;SDS011;3044;43.232;27.972;2023-07-29T02:39:28;1.57;;;1.47;;
6031;SDS011;3044;43.232;27.972;2023-07-29T02:41:55;4.17;;;1.87;;
6031;SDS011;3044;43.232;27.972;2023-07-29T02:44:23;1.47;;;1.30;;
6031;SDS011;3044;43.232;27.972;2023-07-29T02:46:50;2.00;;;1.90;;
6031;SDS011;3044;43.232;27.972;2023-07-29T02:49:22;3.33;;;1.67;;
6031;SDS011;3044;43.232;27.972;2023-07-29T02:51:49;3.40;;;1.60;;
6031;SDS011;3044;43.232;27.972;2023-07-29T02:54:16;1.60;;;1.50;;
6031;SDS011;3044;43.232;27.972;2023-07-29T02:56:43;3.50;;;1.80;;
6031;SDS011;3044;43.232;27.972;2023-07-29T02:59:10;1.63;;;1.53;;
6031;SDS011;3044;43.232;27.972;2023-07-29T03:01:37;4.20;;;2.03;;
6031;SDS011;3044;43.232;27.972;2023-07-29T03:04:04;4.00;;;1.70;;
6031;SDS011;3044;43.232;27.972;2023-07-29T03:06:33;17.23;;;1.80;;
6031;SDS011;3044;43.232;27.972;2023-07-29T03:09:00;3.33;;;1.53;;
6031;SDS011;3044;43.232;27.972;2023-07-29T03:11:27;2.47;;;1.87;;
6031;SDS011;3044;43.232;27.972;2023-07-29T03:13:54;1.60;;;1.50;;
6031;SDS011;3044;43.232;27.972;2023-07-29T03:16:22;2.63;;;1.90;;
6031;SDS011;3044;43.232;27.972;2023-07-29T03:18:49;1.73;;;1.63;;
6031;SDS011;3044;43.232;27.972;2023-07-29T03:21:16;1.67;;;1.43;;
6031;SDS011;3044;43.232;27.972;2023-07-29T03:23:44;2.03;;;1.93;;
6031;SDS011;3044;43.232;27.972;2023-07-29T03:26:12;3.33;;;1.80;;
6031;SDS011;3044;43.232;27.972;2023-07-29T03:28:39;1.30;;;1.20;;
6031;SDS011;3044;43.232;27.972;2023-07-29T03:31:08;1.90;;;1.70;;
6031;SDS011;3044;43.232;27.972;2023-07-29T03:33:36;2.33;;;2.13;;
6031;SDS011;3044;43.232;27.972;2023-07-29T03:36:03;2.67;;;1.43;;
6031;SDS011;3044;43.232;27.972;2023-07-29T03:38:31;1.40;;;1.30;;
6031;SDS011;3044;43.232;27.972;2023-07-29T03:41:01;5.23;;;1.67;;
6031;SDS011;3044;43.232;27.972;2023-07-29T03:43:28;2.93;;;1.97;;
6031;SDS011;3044;43.232;27.972;2023-07-29T03:45:55;1.90;;;1.80;;
6031;SDS011;3044;43.232;27.972;2023-07-29T03:48:23;2.07;;;1.87;;
6031;SDS011;3044;43.232;27.972;2023-07-29T03:50:50;2.93;;;1.47;;
6031;SDS011;3044;43.232;27.972;2023-07-29T03:53:17;4.57;;;1.43;;
6031;SDS011;3044;43.232;27.972;2023-07-29T03:55:44;5.20;;;1.87;;
6031;SDS011;3044;43.232;27.972;2023-07-29T03:58:13;1.67;;;1.57;;
6031;SDS011;3044;43.232;27.972;2023-07-29T04:00:40;1.77;;;1.60;;
6031;SDS011;3044;43.232;27.972;2023-07-29T04:03:08;1.33;;;1.23;;
6031;SDS011;3044;43.232;27.972;2023-07-29T04:05:35;2.23;;;1.80;;
6031;SDS011;3044;43.232;27.972;2023-07-29T04:08:02;2.27;;;1.47;;
6031;SDS011;3044;43.232;27.972;2023-07-29T04:10:29;3.67;;;1.90;;
6031;SDS011;3044;43.232;27.972;2023-07-29T04:12:57;7.43;;;2.10;;
6031;SDS011;3044;43.232;27.972;2023-07-29T04:15:25;3.40;;;1.77;;
6031;SDS011;3044;43.232;27.972;2023-07-29T04:17:52;1.50;;;1.40;;
6031;SDS011;3044;43.232;27.972;2023-07-29T04:20:19;12.93;;;1.60;;
6031;SDS011;3044;43.232;27.972;2023-07-29T04:22:47;5.17;;;1.90;;
6031;SDS011;3044;43.232;27.972;2023-07-29T04:25:14;2.80;;;1.30;;
6031;SDS011;3044;43.232;27.972;2023-07-29T04:27:41;1.70;;;1.23;;
6031;SDS011;3044;43.232;27.972;2023-07-29T04:30:08;1.60;;;1.50;;
6031;SDS011;3044;43.232;27.972;2023-07-29T04:32:37;3.53;;;1.53;;
6031;SDS011;3044;43.232;27.972;2023-07-29T04:35:04;3.67;;;1.20;;
6031;SDS011;3044;43.232;27.972;2023-07-29T04:37:32;1.77;;;1.20;;
6031;SDS011;3044;43.232;27.972;2023-07-29T04:39:59;1.57;;;1.30;;
6031;SDS011;3044;43.232;27.972;2023-07-29T04:42:27;2.20;;;1.10;;
6031;SDS011;3044;43.232;27.972;2023-07-29T04:44:54;1.50;;;1.27;;
6031;SDS011;3044;43.232;27.972;2023-07-29T04:47:21;4.60;;;1.87;;
6031;SDS011;3044;43.232;27.972;2023-07-29T04:49:49;2.07;;;1.40;;
6031;SDS011;3044;43.232;27.972;2023-07-29T04:52:16;1.57;;;1.40;;
6031;SDS011;3044;43.232;27.972;2023-07-29T04:54:44;3.23;;;1.27;;
6031;SDS011;3044;43.232;27.972;2023-07-29T04:57:12;4.60;;;1.20;;
6031;SDS011;3044;43.232;27.972;2023-07-29T04:59:39;2.37;;;1.47;;
6031;SDS011;3044;43.232;27.972;2023-07-29T05:02:06;3.27;;;1.80;;
6031;SDS011;3044;43.232;27.972;2023-07-29T05:04:33;4.03;;;1.10;;
6031;SDS011;3044;43.232;27.972;2023-07-29T05:07:01;1.77;;;1.37;;
6031;SDS011;3044;43.232;27.972;2023-07-29T05:09:28;3.30;;;1.23;;
6031;SDS011;3044;43.232;27.972;2023-07-29T05:11:55;1.57;;;1.30;;
6031;SDS011;3044;43.232;27.972;2023-07-29T05:14:23;2.80;;;1.20;;
6031;SDS011;3044;43.232;27.972;2023-07-29T05:16:50;1.53;;;1.43;;
6031;SDS011;3044;43.232;27.972;2023-07-29T05:19:17;5.23;;;1.30;;
6031;SDS011;3044;43.232;27.972;2023-07-29T05:21:44;3.97;;;1.40;;
6031;SDS011;3044;43.232;27.972;2023-07-29T05:24:12;1.90;;;1.27;;
6031;SDS011;3044;43.232;27.972;2023-07-29T05:26:39;5.50;;;1.53;;
6031;SDS011;3044;43.232;27.972;2023-07-29T05:29:06;6.40;;;1.20;;
6031;SDS011;3044;43.232;27.972;2023-07-29T05:31:34;5.53;;;1.80;;
6031;SDS011;3044;43.232;27.972;2023-07-29T05:34:01;1.60;;;1.30;;
6031;SDS011;3044;43.232;27.972;2023-07-29T05:36:28;3.70;;;1.30;;
6031;SDS011;3044;43.232;27.972;2023-07-29T05:38:55;1.60;;;1.50;;
6031;SDS011;3044;43.232;27.972;2023-07-29T05:41:23;2.10;;;1.77;;
6031;SDS011;3044;43.232;27.972;2023-07-29T05:43:52;1.53;;;1.20;;
6031;SDS011;3044;43.232;27.972;2023-07-29T05:46:19;1.43;;;1.30;;
6031;SDS011;3044;43.232;27.972;2023-07-29T05:48:47;10.50;;;1.50;;
6031;SDS011;3044;43.232;27.972;2023-07-29T05:51:14;11.33;;;1.47;;
6031;SDS011;3044;43.232;27.972;2023-07-29T05:53:41;5.23;;;1.60;;
6031;SDS011;3044;43.232;27.972;2023-07-29T05:56:08;6.83;;;1.70;;
6031;SDS011;3044;43.232;27.972;2023-07-29T05:58:37;2.33;;;1.43;;
6031;SDS011;3044;43.232;27.972;2023-07-29T06:01:05;3.50;;;1.43;;
6031;SDS011;3044;43.232;27.972;2023-07-29T06:03:32;4.47;;;1.40;;
6031;SDS011;3044;43.232;27.972;2023-07-29T06:05:59;3.53;;;1.80;;
6031;SDS011;3044;43.232;27.972;2023-07-29T06:08:26;3.00;;;1.90;;
6031;SDS011;3044;43.232;27.972;2023-07-29T06:10:54;3.03;;;2.00;;
6031;SDS011;3044;43.232;27.972;2023-07-29T06:13:21;6.70;;;1.20;;
6031;SDS011;3044;43.232;27.972;2023-07-29T06:15:50;7.50;;;1.73;;
6031;SDS011;3044;43.232;27.972;2023-07-29T06:18:17;1.70;;;1.60;;
6031;SDS011;3044;43.232;27.972;2023-07-29T06:20:44;4.90;;;1.33;;
6031;SDS011;3044;43.232;27.972;2023-07-29T06:23:11;2.43;;;1.27;;
6031;SDS011;3044;43.232;27.972;2023-07-29T06:25:38;3.50;;;1.50;;
6031;SDS011;3044;43.232;27.972;2023-07-29T06:28:05;3.40;;;1.60;;
6031;SDS011;3044;43.232;27.972;2023-07-29T06:30:32;2.43;;;1.80;;
6031;SDS011;3044;43.232;27.972;2023-07-29T06:33:01;2.17;;;1.43;;
6031;SDS011;3044;43.232;27.972;2023-07-29T06:35:29;12.17;;;1.90;;
6031;SDS011;3044;43.232;27.972;2023-07-29T06:37:56;2.33;;;1.50;;
6031;SDS011;3044;43.232;27.972;2023-07-29T06:40:23;2.77;;;1.60;;
6031;SDS011;3044;43.232;27.972;2023-07-29T06:42:50;1.63;;;1.50;;
6031;SDS011;3044;43.232;27.972;2023-07-29T06:45:17;4.07;;;1.33;;
6031;SDS011;3044;43.232;27.972;2023-07-29T06:47:44;4.73;;;1.60;;
6031;SDS011;3044;43.232;27.972;2023-07-29T06:50:13;7.50;;;2.00;;
6031;SDS011;3044;43.232;27.972;2023-07-29T06:52:40;5.50;;;1.80;;
6031;SDS011;3044;43.232;27.972;2023-07-29T06:55:07;2.60;;;2.40;;
6031;SDS011;3044;43.232;27.972;2023-07-29T06:57:35;4.27;;;2.03;;
6031;SDS011;3044;43.232;27.972;2023-07-29T07:00:02;5.30;;;1.80;;
6031;SDS011;3044;43.232;27.972;2023-07-29T07:02:29;2.53;;;1.60;;
6031;SDS011;3044;43.232;27.972;2023-07-29T07:04:57;5.37;;;2.43;;
6031;SDS011;3044;43.232;27.972;2023-07-29T07:07:25;5.17;;;2.50;;
6031;SDS011;3044;43.232;27.972;2023-07-29T07:09:52;3.70;;;2.27;;
6031;SDS011;3044;43.232;27.972;2023-07-29T07:12:20;8.40;;;2.67;;
6031;SDS011;3044;43.232;27.972;2023-07-29T07:14:47;4.73;;;2.50;;
6031;SDS011;3044;43.232;27.972;2023-07-29T07:17:14;5.90;;;2.47;;
6031;SDS011;3044;43.232;27.972;2023-07-29T07:19:41;7.03;;;2.60;;
6031;SDS011;3044;43.232;27.972;2023-07-29T07:22:09;11.00;;;2.57;;
6031;SDS011;3044;43.232;27.972;2023-07-29T07:24:37;8.63;;;2.17;;
6031;SDS011;3044;43.232;27.972;2023-07-29T07:27:04;3.77;;;2.57;;
6031;SDS011;3044;43.232;27.972;2023-07-29T07:29:32;8.50;;;2.70;;
6031;SDS011;3044;43.232;27.972;2023-07-29T07:31:59;14.20;;;2.97;;
6031;SDS011;3044;43.232;27.972;2023-07-29T07:34:26;8.90;;;2.50;;
6031;SDS011;3044;43.232;27.972;2023-07-29T07:36:53;47.33;;;7.77;;
6031;SDS011;3044;43.232;27.972;2023-07-29T07:39:20;26.00;;;5.40;;
6031;SDS011;3044;43.232;27.972;2023-07-29T07:41:49;114.73;;;13.00;;
6031;SDS011;3044;43.232;27.972;2023-07-29T07:44:16;31.10;;;3.97;;
6031;SDS011;3044;43.232;27.972;2023-07-29T07:46:44;4.20;;;2.60;;
6031;SDS011;3044;43.232;27.972;2023-07-29T07:49:11;6.90;;;2.00;;
6031;SDS011;3044;43.232;27.972;2023-07-29T07:51:39;8.03;;;2.47;;
6031;SDS011;3044;43.232;27.972;2023-07-29T07:54:06;7.53;;;2.47;;
6031;SDS011;3044;43.232;27.972;2023-07-29T07:56:33;4.70;;;2.43;;
6031;SDS011;3044;43.232;27.972;2023-07-29T07:59:01;9.23;;;2.50;;
6031;SDS011;3044;43.232;27.972;2023-07-29T08:01:33;6.97;;;2.80;;
6031;SDS011;3044;43.232;27.972;2023-07-29T08:04:02;7.67;;;3.27;;
6031;SDS011;3044;43.232;27.972;2023-07-29T08:06:29;7.00;;;3.47;;
6031;SDS011;3044;43.232;27.972;2023-07-29T08:08:56;9.30;;;3.63;;
6031;SDS011;3044;43.232;27.972;2023-07-29T08:11:24;14.93;;;3.87;;
6031;SDS011;3044;43.232;27.972;2023-07-29T08:13:51;10.50;;;3.67;;
6031;SDS011;3044;43.232;27.972;2023-07-29T08:16:20;5.37;;;3.47;;
6031;SDS011;3044;43.232;27.972;2023-07-29T08:18:47;5.40;;;3.93;;
6031;SDS011;3044;43.232;27.972;2023-07-29T08:21:14;15.93;;;4.30;;
6031;SDS011;3044;43.232;27.972;2023-07-29T08:23:41;6.90;;;5.10;;
6031;SDS011;3044;43.232;27.972;2023-07-29T08:26:08;155.70;;;15.37;;
6031;SDS011;3044;43.232;27.972;2023-07-29T08:28:35;49.23;;;10.30;;
6031;SDS011;3044;43.232;27.972;2023-07-29T08:31:03;76.30;;;8.33;;
6031;SDS011;3044;43.232;27.972;2023-07-29T08:33:32;68.70;;;11.37;;
6031;SDS011;3044;43.232;27.972;2023-07-29T08:36:00;27.03;;;5.77;;
6031;SDS011;3044;43.232;27.972;2023-07-29T08:38:27;7.50;;;5.10;;
6031;SDS011;3044;43.232;27.972;2023-07-29T08:40:57;17.23;;;5.83;;
6031;SDS011;3044;43.232;27.972;2023-07-29T08:43:30;15.43;;;6.10;;
6031;SDS011;3044;43.232;27.972;2023-07-29T08:45:58;4.77;;;4.37;;
6031;SDS011;3044;43.232;27.972;2023-07-29T08:48:29;11.30;;;4.97;;
6031;SDS011;3044;43.232;27.972;2023-07-29T08:51:03;4.33;;;3.93;;
6031;SDS011;3044;43.232;27.972;2023-07-29T08:53:31;6.43;;;3.07;;
6031;SDS011;3044;43.232;27.972;2023-07-29T08:56:00;3.17;;;2.37;;
6031;SDS011;3044;43.232;27.972;2023-07-29T08:58:27;7.83;;;2.70;;
6031;SDS011;3044;43.232;27.972;2023-07-29T09:00:55;8.83;;;2.60;;
6031;SDS011;3044;43.232;27.972;2023-07-29T09:03:23;9.23;;;2.80;;
6031;SDS011;3044;43.232;27.972;2023-07-29T09:05:51;3.43;;;2.50;;
6031;SDS011;3044;43.232;27.972;2023-07-29T09:08:22;7.70;;;2.80;;
6031;SDS011;3044;43.232;27.972;2023-07-29T09:10:52;7.33;;;2.77;;
6031;SDS011;3044;43.232;27.972;2023-07-29T09:13:19;4.73;;;2.47;;
6031;SDS011;3044;43.232;27.972;2023-07-29T09:15:47;4.03;;;3.07;;
6031;SDS011;3044;43.232;27.972;2023-07-29T09:18:15;7.23;;;2.90;;
6031;SDS011;3044;43.232;27.972;2023-07-29T09:20:43;3.87;;;2.50;;
6031;SDS011;3044;43.232;27.972;2023-07-29T09:23:14;2.10;;;2.00;;
6031;SDS011;3044;43.232;27.972;2023-07-29T09:25:41;2.27;;;2.07;;
6031;SDS011;3044;43.232;27.972;2023-07-29T09:28:09;3.63;;;2.63;;
6031;SDS011;3044;43.232;27.972;2023-07-29T09:30:38;2.13;;;1.80;;
6031;SDS011;3044;43.232;27.972;2023-07-29T09:33:05;3.13;;;2.03;;
6031;SDS011;3044;43.232;27.972;2023-07-29T09:35:33;1.67;;;1.57;;
6031;SDS011;3044;43.232;27.972;2023-07-29T09:38:01;1.77;;;1.67;;
6031;SDS011;3044;43.232;27.972;2023-07-29T09:40:35;2.90;;;1.80;;
6031;SDS011;3044;43.232;27.972;2023-07-29T09:43:03;8.10;;;2.00;;
6031;SDS011;3044;43.232;27.972;2023-07-29T09:45:32;1.70;;;1.60;;
6031;SDS011;3044;43.232;27.972;2023-07-29T09:48:01;2.30;;;1.90;;
6031;SDS011;3044;43.232;27.972;2023-07-29T09:50:30;2.17;;;1.97;;
6031;SDS011;3044;43.232;27.972;2023-07-29T09:52:57;2.80;;;1.97;;
6031;SDS011;3044;43.232;27.972;2023-07-29T09:55:25;1.83;;;1.67;;
6031;SDS011;3044;43.232;27.972;2023-07-29T09:57:55;2.43;;;1.90;;
6031;SDS011;3044;43.232;27.972;2023-07-29T10:00:25;2.00;;;1.80;;
6031;SDS011;3044;43.232;27.972;2023-07-29T10:02:54;3.20;;;2.20;;
6031;SDS011;3044;43.232;27.972;2023-07-29T10:05:22;1.50;;;1.40;;
6031;SDS011;3044;43.232;27.972;2023-07-29T10:07:49;2.33;;;1.60;;
6031;SDS011;3044;43.232;27.972;2023-07-29T10:10:17;1.80;;;1.70;;
6031;SDS011;3044;43.232;27.972;2023-07-29T10:12:44;2.80;;;2.03;;
6031;SDS011;3044;43.232;27.972;2023-07-29T10:15:13;6.00;;;1.53;;
6031;SDS011;3044;43.232;27.972;2023-07-29T10:17:41;2.90;;;1.70;;
6031;SDS011;3044;43.232;27.972;2023-07-29T10:20:08;1.90;;;1.43;;
6031;SDS011;3044;43.232;27.972;2023-07-29T10:22:36;2.80;;;1.70;;
6031;SDS011;3044;43.232;27.972;2023-07-29T10:25:05;3.00;;;2.00;;
6031;SDS011;3044;43.232;27.972;2023-07-29T10:27:37;7.70;;;2.50;;
6031;SDS011;3044;43.232;27.972;2023-07-29T10:30:14;1.97;;;1.87;;
6031;SDS011;3044;43.232;27.972;2023-07-29T10:32:42;1.67;;;1.57;;
6031;SDS011;3044;43.232;27.972;2023-07-29T10:35:10;2.10;;;1.83;;
6031;SDS011;3044;43.232;27.972;2023-07-29T10:37:38;2.90;;;2.00;;
6031;SDS011;3044;43.232;27.972;2023-07-29T10:40:07;13.07;;;1.70;;
6031;SDS011;3044;43.232;27.972;2023-07-29T10:42:35;3.00;;;1.77;;
6031;SDS011;3044;43.232;27.972;2023-07-29T10:45:20;2.33;;;1.87;;
6031;SDS011;3044;43.232;27.972;2023-07-29T10:47:48;3.10;;;1.47;;
6031;SDS011;3044;43.232;27.972;2023-07-29T10:50:19;2.40;;;1.70;;
6031;SDS011;3044;43.232;27.972;2023-07-29T10:52:50;2.13;;;1.93;;
6031;SDS011;3044;43.232;27.972;2023-07-29T10:55:25;1.90;;;1.63;;
6031;SDS011;3044;43.232;27.972;2023-07-29T10:58:04;4.70;;;1.90;;
6031;SDS011;3044;43.232;27.972;2023-07-29T11:00:36;2.80;;;2.40;;
6031;SDS011;3044;43.232;27.972;2023-07-29T11:03:05;5.70;;;2.03;;
6031;SDS011;3044;43.232;27.972;2023-07-29T11:05:46;2.97;;;1.50;;
6031;SDS011;3044;43.232;27.972;2023-07-29T11:08:16;2.50;;;2.30;;
6031;SDS011;3044;43.232;27.972;2023-07-29T11:10:59;2.30;;;1.90;;
6031;SDS011;3044;43.232;27.972;2023-07-29T11:13:29;2.70;;;2.00;;
6031;SDS011;3044;43.232;27.972;2023-07-29T11:15:59;2.40;;;2.20;;
6031;SDS011;3044;43.232;27.972;2023-07-29T11:18:27;6.10;;;1.90;;
6031;SDS011;3044;43.232;27.972;2023-07-29T11:20:55;3.93;;;2.27;;
6031;SDS011;3044;43.232;27.972;2023-07-29T11:23:27;2.73;;;2.40;;
6031;SDS011;3044;43.232;27.972;2023-07-29T11:25:55;3.60;;;2.50;;
6031;SDS011;3044;43.232;27.972;2023-07-29T11:28:23;2.90;;;2.70;;
6031;SDS011;3044;43.232;27.972;2023-07-29T11:30:51;2.70;;;2.50;;
6031;SDS011;3044;43.232;27.972;2023-07-29T11:33:20;3.20;;;2.90;;
6031;SDS011;3044;43.232;27.972;2023-07-29T11:35:48;3.60;;;2.30;;
6031;SDS011;3044;43.232;27.972;2023-07-29T11:38:16;3.53;;;3.17;;
6031;SDS011;3044;43.232;27.972;2023-07-29T11:40:53;4.53;;;2.90;;
6031;SDS011;3044;43.232;27.972;2023-07-29T11:43:21;9.10;;;3.83;;
6031;SDS011;3044;43.232;27.972;2023-07-29T11:45:48;3.60;;;3.00;;
6031;SDS011;3044;43.232;27.972;2023-07-29T11:48:15;9.37;;;3.00;;
6031;SDS011;3044;43.232;27.972;2023-07-29T11:50:43;2.80;;;2.43;;
6031;SDS011;3044;43.232;27.972;2023-07-29T11:53:12;3.73;;;2.70;;
6031;SDS011;3044;43.232;27.972;2023-07-29T11:55:39;12.23;;;4.60;;
6031;SDS011;3044;43.232;27.972;2023-07-29T11:58:06;11.37;;;3.70;;
6031;SDS011;3044;43.232;27.972;2023-07-29T12:00:34;2.40;;;2.20;;
6031;SDS011;3044;43.232;27.972;2023-07-29T12:03:01;4.33;;;2.90;;
6031;SDS011;3044;43.232;27.972;2023-07-29T12:05:28;3.40;;;2.13;;
6031;SDS011;3044;43.232;27.972;2023-07-29T12:07:57;4.10;;;2.73;;
6031;SDS011;3044;43.232;27.972;2023-07-29T12:10:25;3.77;;;2.57;;
6031;SDS011;3044;43.232;27.972;2023-07-29T12:12:52;3.53;;;2.77;;
6031;SDS011;3044;43.232;27.972;2023-07-29T12:15:23;4.23;;;2.00;;
6031;SDS011;3044;43.232;27.972;2023-07-29T12:17:54;6.40;;;2.57;;
6031;SDS011;3044;43.232;27.972;2023-07-29T12:20:24;6.63;;;2.53;;
6031;SDS011;3044;43.232;27.972;2023-07-29T12:22:53;2.50;;;2.40;;
6031;SDS011;3044;43.232;27.972;2023-07-29T12:25:22;4.77;;;2.13;;
6031;SDS011;3044;43.232;27.972;2023-07-29T12:27:49;4.77;;;2.13;;
6031;SDS011;3044;43.232;27.972;2023-07-29T12:30:19;3.30;;;2.23;;
6031;SDS011;3044;43.232;27.972;2023-07-29T12:32:47;4.27;;;2.23;;
6031;SDS011;3044;43.232;27.972;2023-07-29T12:35:14;4.60;;;2.00;;
6031;SDS011;3044;43.232;27.972;2023-07-29T12:37:42;3.80;;;2.70;;
6031;SDS011;3044;43.232;27.972;2023-07-29T12:40:20;5.93;;;2.67;;
6031;SDS011;3044;43.232;27.972;2023-07-29T12:42:49;8.30;;;2.23;;
6031;SDS011;3044;43.232;27.972;2023-07-29T12:45:17;2.70;;;2.30;;
6031;SDS011;3044;43.232;27.972;2023-07-29T12:47:45;3.60;;;2.47;;
6031;SDS011;3044;43.232;27.972;2023-07-29T12:50:12;10.00;;;2.60;;
6031;SDS011;3044;43.232;27.972;2023-07-29T12:52:39;2.70;;;2.50;;
6031;SDS011;3044;43.232;27.972;2023-07-29T12:55:06;2.27;;;2.00;;
6031;SDS011;3044;43.232;27.972;2023-07-29T12:57:39;2.60;;;2.40;;
6031;SDS011;3044;43.232;27.972;2023-07-29T13:00:08;3.70;;;2.77;;
6031;SDS011;3044;43.232;27.972;2023-07-29T13:02:36;7.50;;;2.90;;
6031;SDS011;3044;43.232;27.972;2023-07-29T13:05:03;2.33;;;2.03;;
6031;SDS011;3044;43.232;27.972;2023-07-29T13:07:31;5.57;;;2.10;;
6031;SDS011;3044;43.232;27.972;2023-07-29T13:09:58;2.50;;;2.20;;
6031;SDS011;3044;43.232;27.972;2023-07-29T13:12:26;3.80;;;2.00;;
6031;SDS011;3044;43.232;27.972;2023-07-29T13:14:54;3.73;;;1.87;;
6031;SDS011;3044;43.232;27.972;2023-07-29T13:17:22;6.90;;;2.43;;
6031;SDS011;3044;43.232;27.972;2023-07-29T13:19:49;4.33;;;2.20;;
6031;SDS011;3044;43.232;27.972;2023-07-29T13:22:16;5.57;;;2.00;;
6031;SDS011;3044;43.232;27.972;2023-07-29T13:24:43;4.30;;;2.40;;
6031;SDS011;3044;43.232;27.972;2023-07-29T13:27:11;3.00;;;1.73;;
6031;SDS011;3044;43.232;27.972;2023-07-29T13:29:38;2.90;;;2.23;;
6031;SDS011;3044;43.232;27.972;2023-07-29T13:32:08;4.60;;;1.90;;
6031;SDS011;3044;43.232;27.972;2023-07-29T13:34:35;1.90;;;1.80;;
6031;SDS011;3044;43.232;27.972;2023-07-29T13:37:04;5.67;;;2.17;;
6031;SDS011;3044;43.232;27.972;2023-07-29T13:39:32;5.53;;;1.93;;
6031;SDS011;3044;43.232;27.972;2023-07-29T13:41:59;4.43;;;2.10;;
6031;SDS011;3044;43.232;27.972;2023-07-29T13:44:26;4.50;;;1.80;;
6031;SDS011;3044;43.232;27.972;2023-07-29T13:46:53;2.27;;;1.80;;
6031;SDS011;3044;43.232;27.972;2023-07-29T13:49:21;2.80;;;1.70;;
6031;SDS011;3044;43.232;27.972;2023-07-29T13:51:48;2.00;;;1.80;;
6031;SDS011;3044;43.232;27.972;2023-07-29T13:54:16;4.80;;;2.17;;
6031;SDS011;3044;43.232;27.972;2023-07-29T13:56:43;2.50;;;1.60;;
6031;SDS011;3044;43.232;27.972;2023-07-29T13:59:11;5.37;;;1.90;;
6031;SDS011;3044;43.232;27.972;2023-07-29T14:01:38;10.20;;;2.80;;
6031;SDS011;3044;43.232;27.972;2023-07-29T14:04:05;8.30;;;2.17;;
6031;SDS011;3044;43.232;27.972;2023-07-29T14:06:33;5.70;;;1.90;;
6031;SDS011;3044;43.232;27.972;2023-07-29T14:09:01;4.10;;;1.97;;
6031;SDS011;3044;43.232;27.972;2023-07-29T14:11:28;3.00;;;2.80;;
6031;SDS011;3044;43.232;27.972;2023-07-29T14:13:55;12.90;;;2.57;;
6031;SDS011;3044;43.232;27.972;2023-07-29T14:16:22;5.10;;;2.20;;
6031;SDS011;3044;43.232;27.972;2023-07-29T14:18:49;2.20;;;2.00;;
6031;SDS011;3044;43.232;27.972;2023-07-29T14:21:16;3.43;;;2.00;;
6031;SDS011;3044;43.232;27.972;2023-07-29T14:23:45;2.90;;;2.17;;
6031;SDS011;3044;43.232;27.972;2023-07-29T14:26:12;5.83;;;1.83;;
6031;SDS011;3044;43.232;27.972;2023-07-29T14:28:39;3.73;;;1.67;;
6031;SDS011;3044;43.232;27.972;2023-07-29T14:31:06;3.80;;;2.07;;
6031;SDS011;3044;43.232;27.972;2023-07-29T14:33:34;2.40;;;1.80;;
6031;SDS011;3044;43.232;27.972;2023-07-29T14:36:01;6.13;;;2.47;;
6031;SDS011;3044;43.232;27.972;2023-07-29T14:38:28;2.03;;;1.83;;
6031;SDS011;3044;43.232;27.972;2023-07-29T14:40:57;1.80;;;1.70;;
6031;SDS011;3044;43.232;27.972;2023-07-29T14:43:24;1.90;;;1.70;;
6031;SDS011;3044;43.232;27.972;2023-07-29T14:45:51;2.40;;;1.80;;
6031;SDS011;3044;43.232;27.972;2023-07-29T14:48:18;1.87;;;1.70;;
6031;SDS011;3044;43.232;27.972;2023-07-29T14:50:45;4.17;;;2.00;;
6031;SDS011;3044;43.232;27.972;2023-07-29T14:53:13;1.87;;;1.77;;
6031;SDS011;3044;43.232;27.972;2023-07-29T14:55:40;2.10;;;1.87;;
6031;SDS011;3044;43.232;27.972;2023-07-29T14:58:08;2.00;;;1.50;;
6031;SDS011;3044;43.232;27.972;2023-07-29T15:00:36;3.50;;;1.90;;
6031;SDS011;3044;43.232;27.972;2023-07-29T15:03:03;6.97;;;1.83;;
6031;SDS011;3044;43.232;27.972;2023-07-29T15:05:32;3.30;;;1.63;;